Time;durP1;ratioP1;P1;durP2;ratioP2;P2;SDS_P1;SDS_P2;PMS_P1;PMS_P2;Temp;Humidity;BMP_temperature;BMP_pressure;BME280_temperature;BME280_humidity;BME280_pressure;Samples;Min_cycle;Max_cycle;Signal;HPM_P1;HPM_P2
2023/05/18 00:02:00;;;;;;;7.88;3.15;;;6.80;99.90;;;;;;4994474;28;20641;-79
2023/05/18 00:04:27;;;;;;;8.00;3.10;;;6.80;99.90;;;;;;5022132;28;20095;-79
2023/05/18 00:06:55;;;;;;;8.00;3.40;;;6.80;99.90;;;;;;5002740;28;20540;-79
2023/05/18 00:09:30;;;;;;;9.90;3.33;;;6.80;99.90;;;;;;4988548;28;20034;-79
2023/05/18 00:11:57;;;;;;;8.52;3.30;;;6.70;99.90;;;;;;5017778;28;20029;-79
2023/05/18 00:14:23;;;;;;;13.00;3.92;;;6.60;99.90;;;;;;4967950;28;20071;-79
2023/05/18 00:16:48;;;;;;;10.18;3.42;;;6.60;99.90;;;;;;4987160;28;20038;-79
2023/05/18 00:19:14;;;;;;;10.80;3.75;;;6.60;99.90;;;;;;5004547;28;20065;-79
2023/05/18 00:21:45;;;;;;;10.65;3.42;;;6.50;99.90;;;;;;4962813;28;20088;-79
2023/05/18 00:24:12;;;;;;;7.68;3.65;;;6.50;99.90;;;;;;4995306;28;20045;-78
2023/05/18 00:26:42;;;;;;;7.80;3.28;;;6.30;99.90;;;;;;4991732;28;20561;-79
2023/05/18 00:29:08;;;;;;;10.82;3.50;;;6.30;99.90;;;;;;4997753;28;20025;-79
2023/05/18 00:31:35;;;;;;;10.50;3.42;;;6.20;99.90;;;;;;4971579;28;20029;-79
2023/05/18 00:34:02;;;;;;;11.23;3.53;;;6.20;99.90;;;;;;5003067;28;20038;-79
2023/05/18 00:36:28;;;;;;;8.57;3.60;;;6.10;99.90;;;;;;5005329;28;20065;-79
2023/05/18 00:38:54;;;;;;;7.68;4.00;;;6.10;99.90;;;;;;4982192;28;20034;-78
2023/05/18 00:41:20;;;;;;;13.52;3.60;;;6.00;99.90;;;;;;4995731;28;20093;-79
2023/05/18 00:43:46;;;;;;;9.40;4.05;;;5.90;99.90;;;;;;5006335;28;20545;-79
2023/05/18 00:46:12;;;;;;;9.15;3.72;;;5.80;99.90;;;;;;4970288;28;20048;-78
2023/05/18 00:48:37;;;;;;;8.48;3.55;;;5.80;99.90;;;;;;4972157;28;20407;-78
2023/05/18 00:51:04;;;;;;;10.55;3.63;;;6.00;99.90;;;;;;5001394;28;20034;-79
2023/05/18 00:53:31;;;;;;;11.68;4.40;;;5.60;99.90;;;;;;4988481;28;20057;-79
2023/05/18 00:55:57;;;;;;;9.57;3.90;;;5.50;99.90;;;;;;4998024;28;20042;-79
2023/05/18 00:58:25;;;;;;;8.20;3.90;;;5.40;99.90;;;;;;4986907;28;20068;-79
2023/05/18 01:00:51;;;;;;;7.30;3.58;;;5.40;99.90;;;;;;5002461;28;20030;-79
2023/05/18 01:03:20;;;;;;;13.05;4.15;;;5.40;99.90;;;;;;4965425;28;20040;-79
2023/05/18 01:05:49;;;;;;;10.38;3.58;;;5.30;99.90;;;;;;5002368;28;20068;-79
2023/05/18 01:08:18;;;;;;;11.73;4.10;;;5.30;99.90;;;;;;5006554;28;20052;-79
2023/05/18 01:10:47;;;;;;;10.85;3.92;;;5.30;99.90;;;;;;4988921;28;20048;-80
2023/05/18 01:13:21;;;;;;;10.27;3.80;;;5.20;99.90;;;;;;4989439;28;20071;-80
2023/05/18 01:15:51;;;;;;;11.90;3.60;;;5.10;99.90;;;;;;5019942;28;20081;-79
2023/05/18 01:18:38;;;;;;;11.93;3.67;;;5.10;99.90;;;;;;4984900;28;20149;-79
2023/05/18 01:21:36;;;;;;;11.70;4.00;;;5.10;99.90;;;;;;4997350;28;20041;-79
2023/05/18 01:24:29;;;;;;;12.38;3.90;;;5.00;99.90;;;;;;4963828;28;20057;-79
2023/05/18 01:26:59;;;;;;;12.73;4.20;;;4.90;99.90;;;;;;5014644;28;20037;-79
2023/05/18 01:29:29;;;;;;;31.83;5.15;;;4.90;99.90;;;;;;4992839;28;20037;-79
2023/05/18 01:31:56;;;;;;;14.23;4.30;;;4.80;99.90;;;;;;4993325;28;20065;-79
2023/05/18 01:34:22;;;;;;;9.55;4.28;;;4.70;99.90;;;;;;4992595;28;20533;-79
2023/05/18 01:36:47;;;;;;;8.20;3.88;;;4.70;99.90;;;;;;5001984;28;20065;-79
2023/05/18 01:39:13;;;;;;;10.73;4.13;;;4.60;99.90;;;;;;4998421;28;20399;-79
2023/05/18 01:41:59;;;;;;;9.25;4.22;;;4.60;99.90;;;;;;5009998;28;20147;-79
2023/05/18 01:44:35;;;;;;;9.80;4.32;;;4.60;99.90;;;;;;4989220;28;20073;-80
2023/05/18 01:47:13;;;;;;;11.25;4.05;;;4.60;99.90;;;;;;5005076;28;20053;-79
2023/05/18 01:49:57;;;;;;;9.02;3.63;;;4.40;99.90;;;;;;5003381;28;20552;-79
2023/05/18 01:53:03;;;;;;;9.85;4.30;;;4.40;99.90;;;;;;5009365;28;20053;-79
2023/05/18 01:55:30;;;;;;;7.63;4.40;;;4.30;99.90;;;;;;5017128;28;20075;-79
2023/05/18 01:57:59;;;;;;;6.85;4.00;;;4.20;99.90;;;;;;4983438;28;20501;-79
2023/05/18 02:00:25;;;;;;;9.52;4.25;;;4.20;99.90;;;;;;4986982;28;20040;-79
2023/05/18 02:02:51;;;;;;;8.25;4.30;;;4.20;99.90;;;;;;5001626;28;20046;-79
2023/05/18 02:05:16;;;;;;;8.38;4.13;;;4.30;99.90;;;;;;4987748;28;20038;-79
2023/05/18 02:07:42;;;;;;;9.43;4.63;;;4.10;99.90;;;;;;4990608;28;20041;-80
2023/05/18 02:10:09;;;;;;;6.75;3.78;;;4.10;99.90;;;;;;5003816;28;20403;-80
2023/05/18 02:12:34;;;;;;;11.15;4.40;;;4.10;99.90;;;;;;4989463;28;20049;-80
2023/05/18 02:15:04;;;;;;;11.40;4.18;;;4.50;99.90;;;;;;4989994;28;20545;-80
2023/05/18 02:17:37;;;;;;;15.38;4.55;;;4.10;99.90;;;;;;5006920;28;20061;-80
2023/05/18 02:20:06;;;;;;;15.35;5.07;;;4.10;99.90;;;;;;5003139;28;20081;-80
2023/05/18 02:22:32;;;;;;;10.00;4.25;;;4.10;99.90;;;;;;5008717;28;20564;-80
2023/05/18 02:24:57;;;;;;;12.55;4.18;;;4.30;99.90;;;;;;5006053;28;20143;-80
2023/05/18 02:27:23;;;;;;;10.73;4.40;;;4.00;99.90;;;;;;5002830;28;20061;-80
2023/05/18 02:29:50;;;;;;;9.40;4.40;;;4.00;99.90;;;;;;4973176;28;20041;-80
2023/05/18 02:32:16;;;;;;;11.52;4.03;;;4.00;99.90;;;;;;4978182;28;20043;-80
2023/05/18 02:34:42;;;;;;;8.88;4.43;;;4.10;99.90;;;;;;4964931;28;20042;-80
2023/05/18 02:37:07;;;;;;;9.05;3.92;;;4.00;99.90;;;;;;5003990;28;20037;-80
2023/05/18 02:39:33;;;;;;;17.25;4.78;;;3.90;99.90;;;;;;5006806;28;20048;-80
2023/05/18 02:41:59;;;;;;;11.45;4.55;;;4.00;99.90;;;;;;4994242;28;20124;-80
2023/05/18 02:44:25;;;;;;;6.38;3.90;;;3.90;99.90;;;;;;4970107;28;20061;-80
2023/05/18 02:46:51;;;;;;;10.13;4.30;;;3.90;99.90;;;;;;4995494;28;20037;-80
2023/05/18 02:49:16;;;;;;;10.07;4.18;;;3.90;99.90;;;;;;5002955;28;20037;-80
2023/05/18 02:51:42;;;;;;;14.35;4.80;;;3.80;99.90;;;;;;4968792;28;20091;-80
2023/05/18 02:54:08;;;;;;;9.52;4.68;;;3.80;99.90;;;;;;4947469;28;1151932;-80
2023/05/18 02:56:33;;;;;;;12.77;4.68;;;3.80;99.90;;;;;;4974789;28;20069;-80
2023/05/18 02:58:59;;;;;;;11.90;5.03;;;3.80;99.90;;;;;;4994046;28;20030;-80
2023/05/18 03:01:25;;;;;;;10.82;4.53;;;3.70;99.90;;;;;;4999231;28;20033;-80
2023/05/18 03:03:58;;;;;;;10.10;4.32;;;3.70;99.90;;;;;;4984472;28;20034;-80
2023/05/18 03:06:25;;;;;;;;;;;3.70;99.90;;;;;;5016979;28;20100;-80
2023/05/18 03:08:53;;;;;;;10.23;4.13;;;3.60;99.90;;;;;;5003691;28;19925;-80
2023/05/18 03:11:20;;;;;;;11.50;4.65;;;3.60;99.90;;;;;;5000486;28;20045;-80
2023/05/18 03:13:46;;;;;;;16.13;4.65;;;3.90;99.90;;;;;;5004769;28;20431;-80
2023/05/18 03:16:12;;;;;;;10.68;4.30;;;3.60;99.90;;;;;;5016740;28;20052;-80
2023/05/18 03:18:38;;;;;;;8.20;4.88;;;3.60;99.90;;;;;;5008489;28;20041;-80
2023/05/18 03:21:04;;;;;;;9.35;4.47;;;3.60;99.90;;;;;;5008293;28;20030;-81
2023/05/18 03:23:30;;;;;;;11.75;5.30;;;3.50;99.90;;;;;;5004339;28;20053;-80
2023/05/18 03:25:56;;;;;;;9.38;4.90;;;3.50;99.90;;;;;;5008243;28;20045;-80
2023/05/18 03:28:22;;;;;;;12.68;4.72;;;3.50;99.90;;;;;;4975543;28;20041;-80
2023/05/18 03:30:47;;;;;;;11.57;4.68;;;3.50;99.90;;;;;;4973927;28;20033;-80
2023/05/18 03:33:13;;;;;;;8.95;4.43;;;3.70;99.90;;;;;;4975097;28;20042;-80
2023/05/18 03:35:39;;;;;;;12.80;4.53;;;3.70;99.90;;;;;;5003626;28;20049;-80
2023/05/18 03:38:06;;;;;;;7.85;4.47;;;3.50;99.90;;;;;;5004089;28;20050;-80
2023/05/18 03:40:31;;;;;;;11.25;5.10;;;3.90;99.90;;;;;;4987018;28;20109;-80
2023/05/18 03:42:57;;;;;;;9.25;4.60;;;3.50;99.90;;;;;;5005952;28;20125;-79
2023/05/18 03:45:23;;;;;;;12.00;4.63;;;3.40;99.90;;;;;;5023907;28;20099;-79
2023/05/18 03:47:50;;;;;;;12.32;5.60;;;3.40;99.90;;;;;;4997318;28;20050;-79
2023/05/18 03:50:15;;;;;;;10.68;4.72;;;3.50;99.90;;;;;;5001724;28;20168;-79
2023/05/18 03:52:43;;;;;;;9.60;4.35;;;3.40;99.90;;;;;;4971365;28;20137;-79
2023/05/18 03:55:10;;;;;;;11.02;5.13;;;3.50;99.90;;;;;;4978359;28;20408;-79
2023/05/18 03:57:36;;;;;;;10.20;4.95;;;3.40;99.90;;;;;;4986172;28;20042;-79
2023/05/18 04:00:11;;;;;;;11.25;4.70;;;3.50;99.90;;;;;;4986585;28;20717;-79
2023/05/18 04:02:38;;;;;;;12.77;5.57;;;3.50;99.90;;;;;;4997728;28;20050;-79
2023/05/18 04:05:05;;;;;;;16.40;4.85;;;3.50;99.90;;;;;;4989343;28;20045;-79
2023/05/18 04:07:31;;;;;;;7.97;4.78;;;3.50;99.90;;;;;;5003432;28;20566;-79
2023/05/18 04:09:57;;;;;;;10.20;4.75;;;3.50;99.90;;;;;;4985814;28;20037;-79
2023/05/18 04:12:23;;;;;;;8.57;4.65;;;3.60;99.90;;;;;;4971306;28;20712;-79
2023/05/18 04:14:48;;;;;;;13.07;5.72;;;3.60;99.90;;;;;;4989354;28;20518;-79
2023/05/18 04:17:21;;;;;;;10.45;4.95;;;3.60;99.90;;;;;;4973896;28;20124;-79
2023/05/18 04:19:48;;;;;;;12.70;4.43;;;3.90;99.90;;;;;;4982364;28;20044;-79
2023/05/18 04:22:15;;;;;;;10.38;4.88;;;3.60;99.90;;;;;;4995534;28;20086;-80
2023/05/18 04:24:41;;;;;;;11.52;4.85;;;3.70;99.90;;;;;;4972959;28;20042;-80
2023/05/18 04:27:08;;;;;;;11.30;5.10;;;3.70;99.90;;;;;;4987776;28;20054;-80
2023/05/18 04:29:38;;;;;;;8.68;5.25;;;4.00;99.90;;;;;;4986696;28;20196;-80
2023/05/18 04:32:07;;;;;;;12.43;5.30;;;4.20;99.90;;;;;;4969168;28;20565;-80
2023/05/18 04:34:36;;;;;;;13.38;4.82;;;3.80;99.90;;;;;;4981994;28;20056;-80
2023/05/18 04:37:05;;;;;;;10.18;4.03;;;3.80;99.90;;;;;;4980059;28;20058;-80
2023/05/18 04:39:38;;;;;;;9.30;4.53;;;3.90;99.90;;;;;;4993515;28;20036;-79
2023/05/18 04:42:04;;;;;;;10.27;4.97;;;4.00;99.90;;;;;;4965605;28;20157;-79
2023/05/18 04:44:32;;;;;;;5.63;4.32;;;4.00;99.90;;;;;;4951409;28;20042;-80
2023/05/18 04:46:59;;;;;;;11.52;4.72;;;4.10;99.90;;;;;;4986032;28;20145;-80
2023/05/18 04:49:27;;;;;;;11.63;6.15;;;4.20;99.90;;;;;;4966986;28;20042;-79
2023/05/18 04:51:55;;;;;;;11.85;4.63;;;4.30;99.90;;;;;;4987179;28;20034;-79
2023/05/18 04:54:31;;;;;;;14.18;5.00;;;4.40;99.90;;;;;;4998558;28;20060;-79
2023/05/18 04:56:57;;;;;;;14.55;4.80;;;4.50;99.90;;;;;;5028709;28;20092;-80
2023/05/18 04:59:25;;;;;;;12.90;4.60;;;4.60;99.90;;;;;;5024323;28;20108;-80
2023/05/18 05:01:52;;;;;;;10.48;4.72;;;4.70;99.90;;;;;;5042048;28;20043;-79
2023/05/18 05:04:21;;;;;;;10.68;4.65;;;4.70;99.90;;;;;;5030321;28;20041;-79
2023/05/18 05:06:47;;;;;;;6.93;4.00;;;4.80;99.90;;;;;;5011587;28;20041;-79
2023/05/18 05:09:18;;;;;;;15.32;4.90;;;4.90;99.90;;;;;;4989184;28;20039;-79
2023/05/18 05:11:45;;;;;;;15.33;5.33;;;5.00;99.90;;;;;;5019059;28;20037;-80
2023/05/18 05:14:11;;;;;;;6.93;4.40;;;5.10;99.90;;;;;;5030305;28;20512;-79
2023/05/18 05:16:36;;;;;;;11.43;3.90;;;5.20;99.90;;;;;;4979122;28;20124;-79
2023/05/18 05:19:02;;;;;;;8.50;4.20;;;5.40;99.90;;;;;;5003053;28;20073;-79
2023/05/18 05:21:28;;;;;;;6.13;3.85;;;5.50;99.90;;;;;;5005169;28;20030;-79
2023/05/18 05:23:53;;;;;;;13.77;3.92;;;5.50;99.90;;;;;;4990235;28;20124;-79
2023/05/18 05:26:20;;;;;;;10.27;4.20;;;5.70;99.90;;;;;;5012961;28;20041;-79
2023/05/18 05:28:46;;;;;;;11.23;3.65;;;5.80;99.90;;;;;;4992649;28;20087;-79
2023/05/18 05:31:12;;;;;;;13.82;4.70;;;5.90;99.90;;;;;;5015170;28;20060;-79
2023/05/18 05:33:38;;;;;;;6.97;3.22;;;6.00;99.90;;;;;;5027364;28;20045;-79
2023/05/18 05:36:04;;;;;;;6.65;3.45;;;6.10;99.90;;;;;;4992296;28;20419;-79
2023/05/18 05:38:30;;;;;;;9.55;3.78;;;6.20;99.90;;;;;;5002745;28;20037;-79
2023/05/18 05:40:57;;;;;;;7.90;3.80;;;6.30;99.90;;;;;;5005667;28;20057;-80
2023/05/18 05:43:22;;;;;;;10.23;3.85;;;6.40;99.90;;;;;;4993713;28;20041;-79
2023/05/18 05:45:48;;;;;;;12.32;3.60;;;6.50;99.90;;;;;;4991149;28;20456;-79
2023/05/18 05:48:14;;;;;;;10.15;3.70;;;6.60;99.90;;;;;;5007364;28;20057;-79
2023/05/18 05:50:39;;;;;;;9.30;3.35;;;6.70;99.90;;;;;;5018944;28;20441;-79
2023/05/18 05:53:05;;;;;;;8.60;3.58;;;6.80;99.90;;;;;;5040018;28;20053;-79
2023/05/18 05:55:31;;;;;;;8.00;3.78;;;6.90;99.90;;;;;;4985452;28;20041;-79
2023/05/18 05:57:57;;;;;;;11.40;3.85;;;7.00;99.90;;;;;;5023675;28;20041;-79
2023/05/18 06:00:23;;;;;;;10.18;4.10;;;7.10;99.90;;;;;;4995712;28;20522;-79
2023/05/18 06:02:49;;;;;;;10.48;3.92;;;7.20;99.90;;;;;;5040094;28;20045;-79
2023/05/18 06:05:15;;;;;;;7.53;4.15;;;7.30;99.90;;;;;;5018581;28;20041;-79
2023/05/18 06:07:40;;;;;;;10.55;3.30;;;7.40;99.90;;;;;;4991564;28;20120;-80
2023/05/18 06:10:07;;;;;;;12.05;3.45;;;7.50;99.90;;;;;;5011170;28;20045;-80
2023/05/18 06:12:33;;;;;;;7.88;3.28;;;7.60;99.90;;;;;;5030754;28;20057;-80
2023/05/18 06:14:58;;;;;;;8.85;3.25;;;7.70;99.90;;;;;;5031651;28;20045;-80
2023/05/18 06:17:25;;;;;;;7.80;3.40;;;7.80;99.90;;;;;;5028949;28;20033;-80
2023/05/18 06:19:51;;;;;;;7.78;3.40;;;7.90;99.90;;;;;;5007007;28;20030;-81
2023/05/18 06:22:17;;;;;;;6.68;2.97;;;8.00;99.90;;;;;;5035102;28;20041;-80
2023/05/18 06:24:43;;;;;;;10.23;3.20;;;8.00;99.90;;;;;;5015880;28;20041;-79
2023/05/18 06:27:10;;;;;;;8.23;3.13;;;8.10;99.90;;;;;;4986982;28;20458;-81
2023/05/18 06:29:36;;;;;;;4.68;2.88;;;8.20;99.90;;;;;;5019170;28;20124;-80
2023/05/18 06:32:02;;;;;;;11.40;2.80;;;8.10;99.90;;;;;;5019272;28;20131;-80
2023/05/18 06:34:27;;;;;;;10.95;2.97;;;8.20;99.90;;;;;;5015903;28;20043;-81
2023/05/18 06:36:53;;;;;;;9.55;3.08;;;8.20;99.90;;;;;;5007701;28;20037;-79
2023/05/18 06:39:19;;;;;;;9.25;2.55;;;8.30;99.90;;;;;;5032017;28;20442;-80
2023/05/18 06:41:45;;;;;;;6.07;2.63;;;8.40;99.90;;;;;;5016213;28;20410;-80
2023/05/18 06:44:11;;;;;;;12.07;3.15;;;8.50;99.90;;;;;;4999457;28;20494;-80
2023/05/18 06:46:37;;;;;;;7.97;3.03;;;8.40;99.90;;;;;;5014897;28;20038;-80
2023/05/18 06:49:03;;;;;;;4.40;2.67;;;8.50;99.90;;;;;;4999562;28;20133;-78
2023/05/18 06:51:30;;;;;;;4.53;2.30;;;8.50;99.90;;;;;;5002910;28;20100;-78
2023/05/18 06:53:56;;;;;;;9.90;2.75;;;8.50;99.90;;;;;;5003942;28;20048;-81
2023/05/18 06:56:22;;;;;;;8.40;2.30;;;8.50;99.90;;;;;;4994831;28;20038;-80
2023/05/18 06:58:48;;;;;;;8.65;2.70;;;8.50;99.90;;;;;;5015072;28;20045;-79
2023/05/18 07:01:14;;;;;;;6.57;3.05;;;8.60;99.90;;;;;;4983082;28;20402;-78
2023/05/18 07:03:40;;;;;;;7.05;2.35;;;8.60;99.90;;;;;;5014317;28;20117;-80
2023/05/18 07:06:05;;;;;;;5.70;2.50;;;8.70;99.90;;;;;;4993544;28;20091;-77
2023/05/18 07:08:31;;;;;;;5.90;2.42;;;8.80;99.90;;;;;;5011809;28;20037;-77
2023/05/18 07:10:58;;;;;;;9.48;2.45;;;8.80;99.90;;;;;;4967735;28;20038;-78
2023/05/18 07:13:24;;;;;;;6.20;2.65;;;8.90;99.90;;;;;;5020944;28;20116;-80
2023/05/18 07:15:50;;;;;;;6.50;2.60;;;9.00;99.90;;;;;;5004452;28;20041;-78
2023/05/18 07:18:16;;;;;;;9.32;2.88;;;9.10;99.90;;;;;;4998621;28;20038;-78
2023/05/18 07:20:42;;;;;;;7.63;2.50;;;9.20;99.90;;;;;;4998627;28;20048;-78
2023/05/18 07:23:08;;;;;;;6.15;2.67;;;9.40;99.90;;;;;;4999706;28;20069;-80
2023/05/18 07:25:33;;;;;;;7.88;2.40;;;9.40;99.90;;;;;;5005143;28;20068;-78
2023/05/18 07:27:59;;;;;;;10.98;2.70;;;9.50;99.90;;;;;;5012839;28;20041;-79
2023/05/18 07:30:25;;;;;;;4.55;2.22;;;9.60;99.90;;;;;;4996597;28;20041;-80
2023/05/18 07:32:51;;;;;;;6.68;2.30;;;9.70;99.90;;;;;;5012889;28;20046;-80
2023/05/18 07:35:21;;;;;;;8.88;2.50;;;9.70;99.90;;;;;;4988712;28;20042;-80
2023/05/18 07:37:48;;;;;;;6.47;2.25;;;9.70;99.90;;;;;;5000826;28;20034;-82
2023/05/18 07:40:13;;;;;;;8.20;2.58;;;9.80;99.90;;;;;;4958230;28;20065;-79
2023/05/18 07:42:39;;;;;;;7.40;3.03;;;9.90;99.90;;;;;;4981598;28;20482;-80
2023/05/18 07:45:06;;;;;;;8.18;2.45;;;10.00;99.90;;;;;;4991495;28;20041;-79
2023/05/18 07:47:32;;;;;;;4.40;2.35;;;10.10;99.90;;;;;;5009623;28;20045;-80
2023/05/18 07:49:58;;;;;;;6.57;2.40;;;10.20;99.90;;;;;;5003002;28;20037;-79
2023/05/18 07:52:23;;;;;;;4.50;2.60;;;10.30;99.90;;;;;;4998281;28;20124;-77
2023/05/18 07:54:49;;;;;;;5.38;2.55;;;10.40;99.90;;;;;;4993425;28;20446;-76
2023/05/18 07:57:15;;;;;;;5.78;2.50;;;10.50;99.90;;;;;;4995438;28;20459;-76
2023/05/18 07:59:41;;;;;;;6.20;2.42;;;10.70;99.90;;;;;;5000236;28;20052;-77
2023/05/18 08:02:06;;;;;;;9.70;2.55;;;10.80;99.90;;;;;;4998956;28;20506;-77
2023/05/18 08:04:32;;;;;;;9.25;3.20;;;10.80;99.90;;;;;;5003749;28;20077;-77
2023/05/18 08:06:59;;;;;;;5.90;2.50;;;10.80;99.90;;;;;;4973200;28;20034;-77
2023/05/18 08:09:27;;;;;;;6.65;2.65;;;10.80;99.90;;;;;;4933923;28;20511;-78
2023/05/18 08:11:53;;;;;;;7.68;3.30;;;10.80;99.90;;;;;;4949273;28;20059;-77
2023/05/18 08:14:20;;;;;;;7.35;2.38;;;10.70;99.90;;;;;;4953114;28;20543;-77
2023/05/18 08:16:46;;;;;;;12.88;2.88;;;10.90;99.90;;;;;;4968822;28;20043;-76
2023/05/18 08:19:11;;;;;;;9.48;2.22;;;10.90;99.90;;;;;;4967957;28;20046;-77
2023/05/18 08:21:37;;;;;;;8.35;2.50;;;11.10;99.90;;;;;;4965367;28;20034;-78
2023/05/18 08:24:03;;;;;;;5.32;2.40;;;11.10;99.90;;;;;;4949925;28;20070;-78
2023/05/18 08:26:29;;;;;;;11.02;2.58;;;11.00;99.50;;;;;;4965116;28;20034;-78
2023/05/18 08:28:55;;;;;;;4.53;2.28;;;11.10;99.60;;;;;;4931351;28;20565;-78
2023/05/18 08:31:21;;;;;;;6.63;2.35;;;11.20;99.20;;;;;;4951044;28;20658;-79
2023/05/18 08:33:47;;;;;;;6.85;2.60;;;11.30;99.20;;;;;;4957016;28;20053;-79
2023/05/18 08:36:13;;;;;;;6.13;2.67;;;11.40;99.40;;;;;;4952016;28;20078;-79
2023/05/18 08:38:39;;;;;;;8.25;2.28;;;11.40;99.20;;;;;;4951368;28;20039;-79
2023/05/18 08:41:17;;;;;;;8.65;2.85;;;11.60;99.40;;;;;;4964687;28;20049;-79
2023/05/18 08:43:47;;;;;;;8.82;2.50;;;11.80;99.30;;;;;;4981432;28;20038;-78
2023/05/18 08:46:20;;;;;;;6.45;2.38;;;11.90;98.70;;;;;;4988231;28;20040;-79
2023/05/18 08:48:46;;;;;;;;;;;12.00;97.70;;;;;;4984087;28;20066;-79
2023/05/18 08:51:13;;;;;;;5.28;2.45;;;12.10;97.40;;;;;;4989516;28;20401;-79
2023/05/18 08:53:41;;;;;;;8.50;2.88;;;12.40;97.30;;;;;;5003315;28;20096;-79
2023/05/18 08:56:10;;;;;;;8.50;2.85;;;13.10;98.70;;;;;;5005530;28;20087;-80
2023/05/18 08:58:47;;;;;;;5.50;2.40;;;14.10;98.70;;;;;;4976060;28;20076;-79
2023/05/18 09:01:13;;;;;;;5.32;2.10;;;14.90;95.60;;;;;;4992571;28;20044;-80
2023/05/18 09:03:40;;;;;;;6.75;2.60;;;15.30;95.70;;;;;;5008129;28;20049;-80
2023/05/18 09:06:06;;;;;;;8.15;2.50;;;15.50;93.80;;;;;;4992901;28;20034;-80
2023/05/18 09:08:32;;;;;;;6.65;2.65;;;15.80;93.30;;;;;;4990571;28;20037;-80
2023/05/18 09:11:02;;;;;;;7.03;2.80;;;15.40;92.10;;;;;;5008890;28;20100;-79
2023/05/18 09:13:28;;;;;;;6.72;2.47;;;15.50;92.50;;;;;;4974040;28;20046;-79
2023/05/18 09:15:54;;;;;;;10.27;3.72;;;15.80;92.10;;;;;;4991988;28;20124;-80
2023/05/18 09:18:20;;;;;;;9.15;2.83;;;16.30;92.50;;;;;;4959705;28;20747;-79
2023/05/18 09:20:46;;;;;;;5.75;2.97;;;16.50;91.60;;;;;;5025658;28;20037;-79
2023/05/18 09:23:15;;;;;;;5.15;2.42;;;16.30;91.00;;;;;;5024500;28;20410;-79
2023/05/18 09:25:48;;;;;;;9.18;2.38;;;16.00;90.70;;;;;;5007647;28;20053;-80
2023/05/18 09:28:46;;;;;;;11.02;3.10;;;15.80;90.20;;;;;;4991630;28;20046;-79
2023/05/18 09:31:19;;;;;;;10.18;2.47;;;15.60;90.50;;;;;;4976090;28;20375;-79
2023/05/18 09:33:46;;;;;;;3.25;2.35;;;15.90;90.60;;;;;;5007519;28;20046;-80
2023/05/18 09:36:14;;;;;;;6.72;2.38;;;15.80;90.10;;;;;;4976095;28;20037;-79
2023/05/18 09:38:44;;;;;;;6.30;2.65;;;15.60;91.40;;;;;;4990861;28;20053;-79
2023/05/18 09:41:13;;;;;;;5.85;2.95;;;15.60;91.10;;;;;;5010350;28;20095;-80
2023/05/18 09:43:39;;;;;;;7.65;2.75;;;15.70;90.70;;;;;;4978795;28;20092;-80
2023/05/18 09:46:07;;;;;;;8.25;3.05;;;15.50;88.60;;;;;;4993805;28;20038;-80
2023/05/18 09:48:54;;;;;;;8.35;2.95;;;15.70;90.70;;;;;;4994741;28;20048;-80
2023/05/18 09:51:23;;;;;;;7.38;2.55;;;15.70;90.40;;;;;;4995492;28;20073;-79
2023/05/18 09:53:54;;;;;;;4.55;2.22;;;15.50;88.20;;;;;;4983777;28;20054;-80
2023/05/18 09:56:22;;;;;;;9.73;2.85;;;15.50;90.70;;;;;;5012188;28;20042;-80
2023/05/18 09:58:48;;;;;;;5.22;2.78;;;15.80;90.50;;;;;;5015160;28;20098;-80
2023/05/18 10:01:14;;;;;;;7.93;2.65;;;15.90;90.50;;;;;;4994909;28;20045;-80
2023/05/18 10:03:40;;;;;;;6.30;2.70;;;16.00;90.60;;;;;;5006229;28;20037;-80
2023/05/18 10:06:12;;;;;;;8.20;2.50;;;16.20;90.20;;;;;;5023574;28;20041;-80
2023/05/18 10:08:38;;;;;;;9.18;2.85;;;15.70;88.20;;;;;;5005755;28;20041;-80
2023/05/18 10:11:04;;;;;;;9.10;2.75;;;15.70;90.10;;;;;;5014965;28;20045;-80
2023/05/18 10:13:31;;;;;;;4.68;2.22;;;16.00;90.40;;;;;;5013927;28;20443;-80
2023/05/18 10:16:02;;;;;;;7.85;2.40;;;16.10;90.20;;;;;;5004137;28;20053;-79
2023/05/18 10:18:30;;;;;;;6.65;2.72;;;16.20;90.00;;;;;;5010287;28;20046;-80
2023/05/18 10:20:58;;;;;;;5.10;2.47;;;16.40;90.20;;;;;;5014930;28;20091;-79
2023/05/18 10:23:25;;;;;;;6.50;2.50;;;16.50;89.60;;;;;;5016094;28;20041;-80
2023/05/18 10:25:52;;;;;;;7.03;2.67;;;16.50;87.10;;;;;;4995010;28;20063;-80
2023/05/18 10:28:31;;;;;;;5.28;2.70;;;16.30;86.60;;;;;;5014109;28;20538;-79
2023/05/18 10:30:58;;;;;;;5.72;2.50;;;16.20;87.10;;;;;;4998317;28;20096;-79
2023/05/18 10:33:26;;;;;;;9.13;2.80;;;16.20;85.70;;;;;;5013887;28;20041;-79
2023/05/18 10:35:53;;;;;;;6.55;2.78;;;16.00;85.40;;;;;;5002751;28;20125;-79
2023/05/18 10:38:23;;;;;;;7.72;3.47;;;15.90;87.30;;;;;;4993951;28;20040;-79
2023/05/18 10:40:59;;;;;;;5.57;2.97;;;16.00;88.20;;;;;;4985171;28;20042;-79
2023/05/18 10:43:26;;;;;;;8.00;3.28;;;16.10;87.90;;;;;;5026601;28;20033;-79
2023/05/18 10:45:54;;;;;;;5.25;2.65;;;15.80;86.50;;;;;;4999519;28;20073;-79
2023/05/18 10:48:21;;;;;;;9.38;2.78;;;15.90;88.00;;;;;;4990404;28;20045;-79
2023/05/18 10:50:49;;;;;;;11.48;4.45;;;16.00;86.50;;;;;;4987462;28;20034;-78
2023/05/18 10:53:17;;;;;;;8.55;2.70;;;16.20;85.60;;;;;;5003662;28;20131;-79
2023/05/18 10:55:43;;;;;;;7.70;2.92;;;16.10;85.20;;;;;;5000898;28;20132;-79
2023/05/18 10:58:13;;;;;;;6.90;2.90;;;16.20;88.20;;;;;;4997217;28;20120;-79
2023/05/18 11:00:41;;;;;;;7.60;2.70;;;16.20;88.40;;;;;;4995876;28;20038;-79
2023/05/18 11:03:14;;;;;;;7.38;3.10;;;16.30;88.20;;;;;;5012605;28;20553;-79
2023/05/18 11:05:40;;;;;;;7.10;2.83;;;16.50;88.60;;;;;;4998439;28;20044;-79
2023/05/18 11:08:07;;;;;;;6.43;3.13;;;16.30;85.20;;;;;;5009799;28;20041;-79
2023/05/18 11:10:45;;;;;;;5.80;3.05;;;16.40;86.50;;;;;;5022420;28;20049;-79
2023/05/18 11:13:13;;;;;;;7.95;3.00;;;16.40;85.50;;;;;;5013841;28;20037;-79
2023/05/18 11:15:58;;;;;;;9.20;2.72;;;16.60;86.20;;;;;;5005559;28;20132;-80
2023/05/18 11:18:42;;;;;;;9.57;3.38;;;16.70;85.40;;;;;;5009228;28;20041;-80
2023/05/18 11:21:23;;;;;;;6.78;2.63;;;16.60;84.80;;;;;;5010169;28;20061;-80
2023/05/18 11:24:17;;;;;;;10.90;4.25;;;16.70;86.10;;;;;;4986948;28;20034;-79
2023/05/18 11:26:45;;;;;;;8.98;2.90;;;16.90;85.50;;;;;;4992322;28;20042;-79
2023/05/18 11:29:21;;;;;;;6.55;2.97;;;17.00;85.70;;;;;;5007775;28;20045;-79
2023/05/18 11:31:51;;;;;;;9.02;3.33;;;17.00;85.40;;;;;;4991078;28;20258;-79
2023/05/18 11:34:35;;;;;;;7.90;2.90;;;17.00;86.40;;;;;;4988058;28;20038;-79
2023/05/18 11:37:01;;;;;;;8.55;3.20;;;17.20;83.90;;;;;;5003444;28;20080;-79
2023/05/18 11:39:27;;;;;;;7.03;3.10;;;17.10;83.60;;;;;;5024547;28;20033;-79
2023/05/18 11:42:19;;;;;;;8.93;3.10;;;17.00;86.00;;;;;;4993090;28;20087;-79
2023/05/18 11:44:55;;;;;;;9.52;3.20;;;17.00;86.30;;;;;;5003967;28;20077;-79
2023/05/18 11:47:29;;;;;;;6.15;2.80;;;17.10;86.30;;;;;;4994537;28;20518;-79
2023/05/18 11:49:56;;;;;;;6.80;2.72;;;17.10;86.70;;;;;;5012573;28;20045;-79
2023/05/18 11:52:23;;;;;;;12.02;2.83;;;17.20;86.50;;;;;;4996597;28;20053;-79
2023/05/18 11:54:51;;;;;;;9.38;3.85;;;17.40;87.20;;;;;;5012413;28;20128;-79
2023/05/18 11:57:39;;;;;;;9.77;2.90;;;17.60;86.70;;;;;;5012195;28;20495;-79
2023/05/18 12:00:06;;;;;;;7.82;3.03;;;17.50;84.20;;;;;;5009337;28;20031;-79
2023/05/18 12:02:33;;;;;;;9.82;3.03;;;17.70;84.00;;;;;;5001467;28;20034;-79
2023/05/18 12:05:01;;;;;;;7.43;2.63;;;17.80;85.30;;;;;;5008187;28;20139;-79
2023/05/18 12:07:29;;;;;;;8.90;3.00;;;17.80;82.90;;;;;;4995723;28;20399;-79
2023/05/18 12:10:10;;;;;;;10.77;3.03;;;17.80;84.60;;;;;;5005552;28;20045;-80
2023/05/18 12:12:36;;;;;;;6.32;2.88;;;17.60;85.50;;;;;;4992673;28;20041;-82
2023/05/18 12:15:04;;;;;;;8.50;3.28;;;17.80;83.40;;;;;;4994168;28;20088;-80
2023/05/18 12:17:46;;;;;;;6.10;3.50;;;17.90;85.30;;;;;;5008152;28;20499;-79
2023/05/18 12:20:12;;;;;;;;;;;17.90;82.60;;;;;;5010001;28;20049;-79
2023/05/18 12:22:39;;;;;;;9.38;3.45;;;17.90;82.60;;;;;;4995733;28;19917;-79
2023/05/18 12:25:05;;;;;;;6.28;2.63;;;18.00;83.30;;;;;;4992456;28;20485;-79
2023/05/18 12:27:39;;;;;;;4.93;2.55;;;18.10;82.80;;;;;;4971882;28;20050;-79
2023/05/18 12:30:12;;;;;;;6.80;2.67;;;18.00;83.40;;;;;;5022117;28;20037;-79
2023/05/18 12:32:42;;;;;;;7.47;3.00;;;18.10;83.50;;;;;;5008942;28;20072;-79
2023/05/18 12:35:08;;;;;;;6.75;2.85;;;18.10;83.40;;;;;;4989145;28;20041;-79
2023/05/18 12:37:43;;;;;;;9.20;2.88;;;18.20;82.50;;;;;;4991265;28;20096;-79
2023/05/18 12:40:11;;;;;;;7.38;2.92;;;18.20;83.30;;;;;;5000224;28;20602;-79
2023/05/18 12:42:37;;;;;;;7.93;3.08;;;18.30;82.30;;;;;;4990592;28;20494;-79
2023/05/18 12:45:03;;;;;;;6.65;3.30;;;18.30;83.40;;;;;;5007496;28;20050;-79
2023/05/18 12:47:31;;;;;;;8.73;3.50;;;18.50;83.40;;;;;;5007967;28;20041;-71
2023/05/18 12:50:01;;;;;;;10.23;3.33;;;18.70;82.70;;;;;;5023560;28;20457;-71
2023/05/18 12:52:27;;;;;;;5.63;2.75;;;18.70;82.80;;;;;;5008091;28;20037;-71
2023/05/18 12:55:00;;;;;;;5.28;2.90;;;18.90;82.70;;;;;;5019287;28;20111;-71
2023/05/18 12:57:29;;;;;;;8.35;3.58;;;19.00;80.50;;;;;;5023392;28;20513;-72